Observations for ALGHERO, Italy (LIEA)

LIEA 201950Z 04002KT 9999 MIFG NSC 08/08 Q1026  
LIEA 201920Z 02002KT 9999 FEW015 09/08 Q1026
LIEA 201850Z VRB01KT CAVOK 09/09 Q1025  
LIEA 201820Z VRB01KT CAVOK 10/08 Q1025  
LIEA 201750Z 36004KT CAVOK 11/09 Q1025  
LIEA 201720Z 01004KT CAVOK 12/09 Q1024  
LIEA 201650Z 36004KT CAVOK 14/08 Q1024  
LIEA 201620Z 03006KT 9999 FEW040 14/08 Q1024
LIEA 201550Z 02006KT 9999 FEW040 15/09 Q1024
LIEA 201520Z 02007KT 9999 FEW040 15/08 Q1024
LIEA 201450Z 33005KT 300V030 9999 FEW040 16/08 Q1024
LIEA 201420Z 33006KT 300V020 9999 SCT030 16/08 Q1024
LIEA 201350Z 33007KT 300V040 9999 SCT030 16/09 Q1024
LIEA 201320Z 30007KT 270V350 9999 SCT030 16/09 Q1024
LIEA 201250Z 29007KT 250V330 9999 SCT040 16/08 Q1024
LIEA 201220Z 29006KT 260V320 9999 SCT030 16/08 Q1024
LIEA 201150Z VRB02KT 9999 FEW030 16/05 Q1024
LIEA 201120Z VRB02KT 9999 FEW035 16/06 Q1024
LIEA 201050Z VRB03KT 9999 FEW030 15/07 Q1025
LIEA 201020Z 05003KT 310V100 9999 FEW030 14/09 Q1024
LIEA 200950Z VRB02KT CAVOK 13/09 Q1024  
LIEA 200920Z VRB02KT CAVOK 11/09 Q1024  
LIEA 200850Z 06003KT 030V090 CAVOK 10/08 Q1024  
LIEA 200820Z 03003KT CAVOK 08/07 Q1024  
LIEA 200750Z VRB02KT 8000 NSC 06/06 Q1024   
LIEA 200720Z 02002KT 5000 FEW035 05/05 Q1024
LIEA 200650Z 03003KT 4000 BCFG FEW035 02/02 Q1023   
LIEA 200620Z VRB02KT 1500 BCFG NSC 02/02 Q1023  
LIEA 200550Z VRB01KT 5000 BCFG NSC 01/01 Q1022  
LIEA 200520Z 36001KT 9999 MIFG NSC 02/02 Q1022  
LIEA 200450Z 05002KT 9999 MIFG NSC 02/02 Q1022  
LIEA 200420Z 03001KT 9999 MIFG NSC 03/03 Q1022  
LIEA 200350Z 00000KT 9999 MIFG NSC 02/02 Q1022  
LIEA 200320Z VRB01KT CAVOK 03/03 Q1022  
LIEA 200250Z 04002KT CAVOK 03/03 Q1022  
LIEA 200220Z 04002KT CAVOK 03/03 Q1022  
LIEA 200150Z VRB01KT CAVOK 03/03 Q1022  
LIEA 200120Z 04002KT 9999 FEW042 04/04 Q1022
LIEA 200050Z VRB02KT 9999 FEW042 05/05 Q1022
LIEA 200020Z 02002KT 9999 FEW042 05/05 Q1022
LIEA 192350Z 03003KT CAVOK 06/05 Q1022  
LIEA 192320Z VRB01KT 9999 FEW042 05/05 Q1022
LIEA 192250Z 04004KT CAVOK 05/05 Q1022  
LIEA 192220Z VRB01KT 9999 MIFG NSC 05/04 Q1022  
LIEA 192150Z VRB01KT 9999 MIFG NSC 06/06 Q1022  
LIEA 192120Z 24001KT 9999 MIFG NSC 06/06 Q1022  
LIEA 192050Z VRB01KT 9999 MIFG NSC 06/06 Q1022  
LIEA 192020Z 20002KT 9999 MIFG NSC 07/07 Q1022  
LIEA 191950Z VRB01KT 9999 MIFG NSC 07/07 Q1022